Levelock, AK

6:04 AM AKDT on July 23, 2016 (GMT -0800)
Iliamna | | Change Station

Elev 161 ft 59.75 °N, 154.91 °W | Updated 11 minutes ago

Scattered Clouds
Scattered Clouds
53 °F
Feels Like 53 °F
N
10
Wind Variable Wind from NW
Gusts 20 mph

Today
High -- | Low -- °F
--% Chance of Precip.
Yesterday
High -- | Low -- °F
Precip. -- in
Pressure 29.78 in
Visibility 10.0 miles
Clouds Scattered Clouds 7000 ft
Dew Point 47 °F
Humidity 80%
Rainfall 0.00 in
Snow Depth Not available.
5:39 AM 11:04 PM
Waning Gibbous, 85% visible
METAR PAIL 231353Z 31009G17KT 10SM SCT070 12/08 A2978 RMK AO2 SLP085 T01170083
Pressure 29.78 in
Visibility 10.0 miles
Clouds Scattered Clouds 7000 ft
Dew Point 47 °F
Humidity 80%
Rainfall 0.00 in
Snow Depth Not available.
5:39 AM 11:04 PM
Waning Gibbous, 85% visible
METAR PAIL 231353Z 31009G17KT 10SM SCT070 12/08 A2978 RMK AO2 SLP085 T01170083

10-Day Weather Forecast

Almanac

Astronomy

Jul. 23, 2016 Rise Set
Actual Time
Civil Twilight
Nautical Twilight
Astronomical Twilight
Moon
Length of Visible Light
Length of Day
Tomorrow will be .
, % of the Moon is Illuminated

Today's Extremes

State Highs State Lows

Community

WunderPhotos

Upload Photos

1,926,821 photos uploaded!

WunderBlog® & News

Nearby

Air Quality

  Air Quality AQ Index Pollutant
Not available.

Snow Depth

Station Depth Elevation

Earthquake Activity

City Distance Mag. Time & Date
Minimum magnitude displayed is 2.5.

Coastal Water Temperatures

Place Temperature

Stations

Nearby Weather Stations

Station Location Temp. Windchill Dew Point Humidity Wind Precip. Elev Updated Type
                   

Watches & Warnings

There are currently no watches in effect.